createdAt,value
2023-01-13T00:01:45.540Z,8.75
2023-01-13T00:04:14.629Z,8.72
2023-01-13T00:06:43.960Z,8.78
2023-01-13T00:09:13.359Z,8.72
2023-01-13T00:11:42.517Z,8.79
2023-01-13T00:14:11.820Z,8.72
2023-01-13T00:16:42.240Z,8.75
2023-01-13T00:19:11.561Z,8.78
2023-01-13T00:21:40.878Z,8.78
2023-01-13T00:24:10.480Z,8.78
2023-01-13T00:26:39.546Z,8.78
2023-01-13T00:29:09.378Z,8.75
2023-01-13T00:31:38.416Z,8.74
2023-01-13T00:34:09.387Z,8.75
2023-01-13T00:36:38.510Z,8.77
2023-01-13T00:39:07.836Z,8.73
2023-01-13T00:41:50.824Z,8.76
2023-01-13T00:44:20.449Z,8.80
2023-01-13T00:46:49.544Z,8.73
2023-01-13T00:49:20.329Z,8.75
2023-01-13T00:51:49.370Z,8.68
2023-01-13T00:54:18.773Z,8.75
2023-01-13T00:56:47.796Z,8.69
2023-01-13T00:59:17.174Z,8.68
2023-01-13T01:01:46.378Z,8.75
2023-01-13T01:04:15.683Z,8.69
2023-01-13T01:06:46.074Z,8.70
2023-01-13T01:09:17.112Z,8.70
2023-01-13T01:11:46.889Z,8.69
2023-01-13T01:14:16.523Z,8.68
2023-01-13T01:16:46.832Z,8.72
2023-01-13T01:19:16.236Z,8.67
2023-01-13T01:21:47.088Z,8.62
2023-01-13T01:24:17.224Z,8.67
2023-01-13T01:26:46.285Z,8.63
2023-01-13T01:29:16.616Z,8.75
2023-01-13T01:31:46.195Z,8.71
2023-01-13T01:34:15.423Z,8.73
2023-01-13T01:36:45.884Z,8.70
2023-01-13T01:39:15.445Z,8.71
2023-01-13T01:42:04.670Z,8.68
2023-01-13T01:44:51.600Z,8.70
2023-01-13T01:47:21.315Z,8.71
2023-01-13T01:49:51.705Z,8.69
2023-01-13T01:52:26.448Z,8.73
2023-01-13T01:54:59.853Z,8.77
2023-01-13T01:57:37.052Z,8.81
2023-01-13T02:00:08.334Z,8.81
2023-01-13T02:02:46.665Z,8.82
2023-01-13T02:05:17.047Z,8.86
2023-01-13T02:07:50.767Z,8.87
2023-01-13T02:10:21.615Z,8.86
2023-01-13T02:12:51.877Z,8.89
2023-01-13T02:15:24.367Z,8.84
2023-01-13T02:18:17.470Z,8.83
2023-01-13T02:21:36.702Z,8.81
2023-01-13T02:25:03.038Z,8.83
2023-01-13T02:27:59.337Z,8.82
2023-01-13T02:31:00.910Z,8.81
2023-01-13T02:33:43.253Z,8.87
2023-01-13T02:36:20.865Z,8.87
2023-01-13T02:38:59.365Z,8.87
2023-01-13T02:41:52.996Z,8.81
2023-01-13T02:44:29.091Z,8.88
2023-01-13T02:47:05.409Z,8.93
2023-01-13T02:49:39.006Z,8.90
2023-01-13T02:52:13.591Z,8.88
2023-01-13T02:54:48.977Z,8.87
2023-01-13T02:57:21.915Z,8.83
2023-01-13T02:59:54.314Z,8.86
2023-01-13T03:02:26.719Z,8.84
2023-01-13T03:04:57.986Z,8.86
2023-01-13T03:07:59.169Z,8.87
2023-01-13T03:10:47.558Z,8.87
2023-01-13T03:13:26.431Z,8.86
2023-01-13T03:16:02.002Z,8.87
2023-01-13T03:18:44.317Z,8.86
2023-01-13T03:21:21.435Z,8.90
2023-01-13T03:23:54.984Z,8.88
2023-01-13T03:26:29.818Z,8.87
2023-01-13T03:29:07.835Z,8.86
2023-01-13T03:31:44.202Z,8.88
2023-01-13T03:34:19.660Z,8.86
2023-01-13T03:36:54.240Z,8.87
2023-01-13T03:39:31.201Z,8.89
2023-01-13T03:42:05.720Z,8.90
2023-01-13T03:44:38.606Z,8.88
2023-01-13T03:47:16.149Z,8.90
2023-01-13T03:49:54.414Z,8.92
2023-01-13T03:52:30.573Z,8.89
2023-01-13T03:55:05.382Z,8.90
2023-01-13T03:57:39.898Z,8.90
2023-01-13T04:00:13.525Z,8.86
2023-01-13T04:02:52.527Z,8.87
2023-01-13T04:05:23.662Z,8.92
2023-01-13T04:08:01.638Z,8.92
2023-01-13T04:10:37.125Z,8.91
2023-01-13T04:13:11.633Z,8.95
2023-01-13T04:15:43.619Z,8.95
2023-01-13T04:18:19.275Z,8.95
2023-01-13T04:20:52.117Z,9.02
2023-01-13T04:23:22.846Z,8.98
2023-01-13T04:25:52.393Z,9.00
2023-01-13T04:28:22.332Z,8.98
2023-01-13T04:30:51.209Z,8.93
2023-01-13T04:33:22.161Z,8.97
2023-01-13T04:35:53.737Z,8.95
2023-01-13T04:38:23.660Z,8.98
2023-01-13T04:40:52.550Z,9.01
2023-01-13T04:43:21.845Z,9.03
2023-01-13T04:45:51.539Z,9.04
2023-01-13T04:48:20.884Z,8.98
2023-01-13T04:50:51.469Z,9.00
2023-01-13T04:53:22.137Z,9.06
2023-01-13T04:55:52.260Z,9.02
2023-01-13T04:58:22.737Z,9.05
2023-01-13T05:00:52.522Z,9.01
2023-01-13T05:03:21.972Z,9.04
2023-01-13T05:05:54.418Z,9.02
2023-01-13T05:08:23.805Z,9.04
2023-01-13T05:10:52.812Z,9.09
2023-01-13T05:13:39.733Z,9.04
2023-01-13T05:16:37.658Z,9.03
2023-01-13T05:19:07.098Z,9.08
2023-01-13T05:21:54.691Z,9.20
2023-01-13T05:24:41.684Z,9.16
2023-01-13T05:27:11.193Z,9.14
2023-01-13T05:29:40.243Z,9.12
2023-01-13T05:32:09.262Z,9.19
2023-01-13T05:34:38.516Z,9.21
2023-01-13T05:37:11.206Z,9.21
2023-01-13T05:39:54.535Z,9.20
2023-01-13T05:42:41.193Z,9.21
2023-01-13T05:45:12.217Z,9.19
2023-01-13T05:47:41.592Z,9.23
2023-01-13T05:50:12.196Z,9.22
2023-01-13T05:52:43.561Z,9.20
2023-01-13T05:55:14.710Z,9.20
2023-01-13T05:57:43.716Z,9.20
2023-01-13T06:00:14.648Z,9.26
2023-01-13T06:02:43.987Z,9.23
2023-01-13T06:05:13.338Z,9.16
2023-01-13T06:07:43.814Z,9.18
2023-01-13T06:10:13.633Z,9.16
2023-01-13T06:12:42.751Z,9.18
2023-01-13T06:15:12.651Z,9.19
2023-01-13T06:17:41.643Z,9.23
2023-01-13T06:20:12.218Z,9.19
2023-01-13T06:22:45.813Z,9.24
2023-01-13T06:25:22.946Z,9.24
2023-01-13T06:27:53.228Z,9.23
2023-01-13T06:30:22.619Z,9.26
2023-01-13T06:32:54.325Z,9.20
2023-01-13T06:35:29.644Z,9.21
2023-01-13T06:38:04.157Z,9.20
2023-01-13T06:40:33.594Z,9.24
2023-01-13T06:43:17.326Z,9.28
2023-01-13T06:45:50.420Z,9.30
2023-01-13T06:48:23.359Z,9.25
2023-01-13T06:50:52.887Z,9.18
2023-01-13T06:53:23.254Z,9.23
2023-01-13T06:55:52.639Z,9.22
2023-01-13T06:58:21.749Z,9.25
2023-01-13T07:00:51.644Z,9.24
2023-01-13T07:03:21.492Z,9.25
2023-01-13T07:05:55.363Z,9.28
2023-01-13T07:08:26.367Z,9.28
2023-01-13T07:10:55.847Z,9.22
2023-01-13T07:13:42.561Z,9.21
2023-01-13T07:16:12.157Z,9.19
2023-01-13T07:18:41.192Z,9.23
2023-01-13T07:21:13.227Z,9.26
2023-01-13T07:23:43.820Z,9.25
2023-01-13T07:26:13.971Z,9.29
2023-01-13T07:28:43.400Z,9.25
2023-01-13T07:31:17.987Z,9.25
2023-01-13T07:33:47.339Z,9.32
2023-01-13T07:36:17.141Z,9.31
2023-01-13T07:38:47.417Z,9.33
2023-01-13T07:41:34.979Z,9.31
2023-01-13T07:44:06.738Z,9.35
2023-01-13T07:46:36.502Z,9.37
2023-01-13T07:49:05.747Z,9.37
2023-01-13T07:51:36.541Z,9.43
2023-01-13T07:54:07.821Z,9.45
2023-01-13T07:56:37.424Z,9.45
2023-01-13T07:59:06.390Z,9.48
2023-01-13T08:01:36.109Z,9.43
2023-01-13T08:04:05.347Z,9.47
2023-01-13T08:06:34.608Z,9.56
2023-01-13T08:09:05.331Z,9.49
2023-01-13T08:11:34.793Z,9.49
2023-01-13T08:14:04.040Z,9.57
2023-01-13T08:16:34.555Z,9.60
2023-01-13T08:19:03.655Z,9.58
2023-01-13T08:21:32.916Z,9.58
2023-01-13T08:24:02.074Z,9.58
2023-01-13T08:26:32.982Z,9.61
2023-01-13T08:29:02.099Z,9.58
2023-01-13T08:31:31.390Z,9.56
2023-01-13T08:34:00.506Z,9.62
2023-01-13T08:36:29.767Z,9.62
2023-01-13T08:38:58.874Z,9.60
2023-01-13T08:41:44.904Z,9.70
2023-01-13T08:44:15.636Z,9.74
2023-01-13T08:46:45.024Z,9.75
2023-01-13T08:49:14.079Z,9.70
2023-01-13T08:51:43.525Z,9.70
2023-01-13T08:54:12.910Z,9.75
2023-01-13T08:56:43.277Z,9.76
2023-01-13T08:59:16.045Z,9.77
2023-01-13T09:01:46.079Z,9.76
2023-01-13T09:04:20.196Z,9.81
2023-01-13T09:06:50.745Z,9.78
2023-01-13T09:09:20.328Z,9.80
2023-01-13T09:12:09.709Z,9.84
2023-01-13T09:14:41.142Z,9.86
2023-01-13T09:17:12.168Z,9.83
2023-01-13T09:19:41.875Z,9.85
2023-01-13T09:22:15.879Z,9.87
2023-01-13T09:24:45.526Z,9.91
2023-01-13T09:27:16.289Z,9.95
2023-01-13T09:29:46.695Z,9.97
2023-01-13T09:32:16.917Z,9.90
2023-01-13T09:35:00.162Z,9.93
2023-01-13T09:37:30.997Z,9.92
2023-01-13T09:40:00.151Z,9.95
2023-01-13T09:42:58.978Z,10.02
2023-01-13T09:45:33.725Z,9.98
2023-01-13T09:48:09.875Z,9.99
2023-01-13T09:50:56.440Z,9.94
2023-01-13T09:53:30.433Z,9.99
2023-01-13T09:55:59.717Z,9.95
2023-01-13T09:58:29.310Z,9.92
2023-01-13T10:01:17.173Z,9.93
2023-01-13T10:03:49.136Z,9.91
2023-01-13T10:06:22.210Z,9.88
2023-01-13T10:08:52.420Z,9.96
2023-01-13T10:11:41.393Z,10.01
2023-01-13T10:14:18.910Z,10.06
2023-01-13T10:16:56.373Z,10.04
2023-01-13T10:19:31.335Z,10.07
2023-01-13T10:22:36.509Z,10.09
2023-01-13T10:25:31.236Z,10.16
2023-01-13T10:28:09.193Z,10.17
2023-01-13T10:30:40.396Z,10.19
2023-01-13T10:33:15.869Z,10.23
2023-01-13T10:36:00.283Z,10.18
2023-01-13T10:38:32.184Z,10.22
2023-01-13T10:41:03.357Z,10.27
2023-01-13T10:43:33.505Z,10.31
2023-01-13T10:46:06.468Z,10.37
2023-01-13T10:48:42.468Z,10.39
2023-01-13T10:51:23.210Z,10.43
2023-01-13T10:53:58.768Z,10.44
2023-01-13T10:56:30.915Z,10.47
2023-01-13T10:59:23.548Z,10.53
2023-01-13T11:02:03.891Z,10.57
2023-01-13T11:04:38.212Z,10.64
2023-01-13T11:07:21.670Z,10.67
2023-01-13T11:10:12.098Z,10.80
2023-01-13T11:12:50.869Z,10.80
2023-01-13T11:15:24.872Z,10.84
2023-01-13T11:18:00.814Z,10.80
2023-01-13T11:20:37.160Z,10.82
2023-01-13T11:23:16.897Z,10.84
2023-01-13T11:25:50.417Z,10.91
2023-01-13T11:28:50.312Z,10.96
2023-01-13T11:31:24.557Z,11.02
2023-01-13T11:34:00.820Z,11.04
2023-01-13T11:36:39.376Z,11.06
2023-01-13T11:39:22.324Z,11.05
2023-01-13T11:42:12.717Z,11.08
2023-01-13T11:44:47.613Z,11.07
2023-01-13T11:47:22.478Z,11.07
2023-01-13T11:49:52.028Z,11.09
2023-01-13T11:52:30.724Z,11.13
2023-01-13T11:55:15.458Z,11.09
2023-01-13T11:57:56.952Z,11.09
2023-01-13T12:01:00.430Z,11.13
2023-01-13T12:03:35.830Z,11.16
2023-01-13T12:06:21.043Z,11.18
2023-01-13T12:09:05.069Z,11.24
2023-01-13T12:12:00.264Z,11.26
2023-01-13T12:14:39.879Z,11.31
2023-01-13T12:17:21.342Z,11.29
2023-01-13T12:19:52.573Z,11.30
2023-01-13T12:22:27.387Z,11.29
2023-01-13T12:25:07.812Z,11.30
2023-01-13T12:27:47.268Z,11.26
2023-01-13T12:30:26.692Z,11.29
2023-01-13T12:33:01.089Z,11.24
2023-01-13T12:35:40.048Z,11.21
2023-01-13T12:38:19.463Z,11.18
2023-01-13T12:40:57.745Z,11.18
2023-01-13T12:43:44.807Z,11.19
2023-01-13T12:46:53.395Z,11.12
2023-01-13T12:49:25.301Z,11.12
2023-01-13T12:52:24.586Z,11.09
2023-01-13T12:55:15.536Z,11.06
2023-01-13T12:58:27.245Z,10.99
2023-01-13T13:01:01.340Z,11.01
2023-01-13T13:03:35.659Z,10.99
2023-01-13T13:06:19.614Z,10.99
2023-01-13T13:09:03.667Z,10.94
2023-01-13T13:11:59.375Z,10.92
2023-01-13T13:15:07.191Z,10.89
2023-01-13T13:17:43.472Z,10.86
2023-01-13T13:20:53.846Z,10.87
2023-01-13T13:24:01.092Z,10.80
2023-01-13T13:26:38.516Z,10.73
2023-01-13T13:29:39.247Z,10.66
2023-01-13T13:32:47.132Z,10.67
2023-01-13T13:35:32.407Z,10.63
2023-01-13T13:38:34.905Z,10.59
2023-01-13T13:41:29.814Z,10.56
2023-01-13T13:44:21.634Z,10.56
2023-01-13T13:46:51.467Z,10.50
2023-01-13T13:49:22.384Z,10.44
2023-01-13T13:52:00.957Z,10.42
2023-01-13T13:54:30.654Z,10.44
2023-01-13T13:57:01.041Z,10.40
2023-01-13T13:59:33.630Z,10.33
2023-01-13T14:02:04.962Z,10.31
2023-01-13T14:04:41.378Z,10.32
2023-01-13T14:07:21.078Z,10.25
2023-01-13T14:09:53.786Z,10.29
2023-01-13T14:12:25.703Z,10.23
2023-01-13T14:14:57.490Z,10.14
2023-01-13T14:17:29.786Z,10.06
2023-01-13T14:20:07.995Z,9.97
2023-01-13T14:22:40.584Z,9.81
2023-01-13T14:25:29.941Z,9.70
2023-01-13T14:28:04.265Z,9.61
2023-01-13T14:30:35.150Z,9.46
2023-01-13T14:33:06.613Z,9.41
2023-01-13T14:35:35.883Z,9.31
2023-01-13T14:38:06.575Z,9.27
2023-01-13T14:40:46.544Z,9.22
2023-01-13T14:43:19.332Z,9.16
2023-01-13T14:46:00.133Z,9.12
2023-01-13T14:48:35.612Z,9.07
2023-01-13T14:51:06.781Z,8.98
2023-01-13T14:53:43.240Z,8.94
2023-01-13T14:56:44.531Z,8.85
2023-01-13T14:59:36.804Z,8.81
2023-01-13T15:02:38.293Z,8.72
2023-01-13T15:05:49.303Z,8.77
2023-01-13T15:08:28.889Z,8.75
2023-01-13T15:11:03.280Z,8.70
2023-01-13T15:13:45.416Z,8.60
2023-01-13T15:16:24.464Z,8.53
2023-01-13T15:18:54.332Z,8.53
2023-01-13T15:21:24.771Z,8.56
2023-01-13T15:23:53.866Z,8.55
2023-01-13T15:26:27.758Z,8.52
2023-01-13T15:28:58.550Z,8.50
2023-01-13T15:31:29.244Z,8.42
2023-01-13T15:33:58.896Z,8.37
2023-01-13T15:36:31.262Z,8.28
2023-01-13T15:39:02.316Z,8.25
2023-01-13T15:42:02.106Z,8.19
2023-01-13T15:44:48.735Z,8.18
2023-01-13T15:47:18.201Z,8.17
2023-01-13T15:49:48.427Z,8.18
2023-01-13T15:52:22.045Z,8.18
2023-01-13T15:54:55.050Z,8.19
2023-01-13T15:57:27.789Z,8.21
2023-01-13T15:59:58.936Z,8.18
2023-01-13T16:02:31.131Z,8.18
2023-01-13T16:05:00.354Z,8.19
2023-01-13T16:07:29.614Z,8.21
2023-01-13T16:10:01.766Z,8.22
2023-01-13T16:12:38.199Z,8.35
2023-01-13T16:15:10.475Z,8.39
2023-01-13T16:17:41.485Z,8.32
2023-01-13T16:20:14.542Z,8.31
2023-01-13T16:22:46.340Z,8.31
2023-01-13T16:25:19.072Z,8.28
2023-01-13T16:27:51.485Z,8.25
2023-01-13T16:30:26.744Z,8.20
2023-01-13T16:32:56.712Z,8.18
2023-01-13T16:35:26.491Z,8.21
2023-01-13T16:37:58.455Z,8.20
2023-01-13T16:40:31.283Z,8.15
2023-01-13T16:43:03.740Z,8.15
2023-01-13T16:45:33.608Z,8.07
2023-01-13T16:48:03.351Z,8.03
2023-01-13T16:50:37.456Z,8.03
2023-01-13T16:53:09.307Z,8.01
2023-01-13T16:55:39.978Z,8.00
2023-01-13T16:58:18.137Z,7.98
2023-01-13T17:00:48.532Z,7.94
2023-01-13T17:03:18.438Z,7.86
2023-01-13T17:05:48.313Z,7.81
2023-01-13T17:08:19.076Z,7.80
2023-01-13T17:10:49.377Z,7.78
2023-01-13T17:13:20.944Z,7.73
2023-01-13T17:15:50.099Z,7.68
2023-01-13T17:18:19.393Z,7.66
2023-01-13T17:20:48.594Z,7.65
2023-01-13T17:23:18.173Z,7.67
2023-01-13T17:25:47.354Z,7.64
2023-01-13T17:28:16.662Z,7.64
2023-01-13T17:30:47.171Z,7.58
2023-01-13T17:33:16.592Z,7.55
2023-01-13T17:35:46.199Z,7.56
2023-01-13T17:38:15.245Z,7.52
2023-01-13T17:40:44.342Z,7.48
2023-01-13T17:43:13.632Z,7.50
2023-01-13T17:45:43.029Z,7.53
2023-01-13T17:48:13.913Z,7.46
2023-01-13T17:50:48.619Z,7.47
2023-01-13T17:53:18.213Z,7.47
2023-01-13T17:55:51.722Z,7.50
2023-01-13T17:58:21.938Z,7.51
2023-01-13T18:00:51.773Z,7.48
2023-01-13T18:03:23.175Z,7.52
2023-01-13T18:05:52.493Z,7.56
2023-01-13T18:08:23.732Z,7.61
2023-01-13T18:10:54.734Z,7.56
2023-01-13T18:13:24.156Z,7.58
2023-01-13T18:16:03.114Z,7.58
2023-01-13T18:18:35.594Z,7.56
2023-01-13T18:21:23.063Z,7.52
2023-01-13T18:24:10.215Z,7.46
2023-01-13T18:26:56.974Z,7.49
2023-01-13T18:29:26.430Z,7.44
2023-01-13T18:31:55.459Z,7.42
2023-01-13T18:34:26.223Z,7.40
2023-01-13T18:36:56.130Z,7.36
2023-01-13T18:39:25.423Z,7.33
2023-01-13T18:42:12.147Z,7.31
2023-01-13T18:44:43.975Z,7.29
2023-01-13T18:47:13.234Z,7.26
2023-01-13T18:49:43.916Z,7.28
2023-01-13T18:52:14.159Z,7.25
2023-01-13T18:54:43.460Z,7.19
2023-01-13T18:57:14.767Z,7.16
2023-01-13T18:59:47.437Z,7.12
2023-01-13T19:02:18.115Z,7.12
2023-01-13T19:04:49.200Z,7.15
2023-01-13T19:07:23.597Z,7.21
2023-01-13T19:09:55.340Z,7.18
2023-01-13T19:12:27.547Z,7.17
2023-01-13T19:14:58.109Z,7.17
2023-01-13T19:17:31.233Z,7.15
2023-01-13T19:20:02.115Z,7.12
2023-01-13T19:22:36.775Z,7.13
2023-01-13T19:25:08.950Z,7.06
2023-01-13T19:27:40.232Z,7.04
2023-01-13T19:30:15.818Z,6.99
2023-01-13T19:32:47.836Z,6.97
2023-01-13T19:35:19.962Z,6.98
2023-01-13T19:37:49.560Z,6.98
2023-01-13T19:40:19.417Z,6.94
2023-01-13T19:43:05.647Z,6.89
2023-01-13T19:45:36.282Z,6.85
2023-01-13T19:48:08.527Z,6.82
2023-01-13T19:50:40.823Z,6.77
2023-01-13T19:53:15.539Z,6.76
2023-01-13T19:55:48.611Z,6.72
2023-01-13T19:58:18.907Z,6.74
2023-01-13T20:00:49.291Z,6.75
2023-01-13T20:03:23.634Z,6.74
2023-01-13T20:05:58.025Z,6.64
2023-01-13T20:08:27.140Z,6.65
2023-01-13T20:11:16.509Z,6.62
2023-01-13T20:13:45.774Z,6.53
2023-01-13T20:16:15.465Z,6.56
2023-01-13T20:18:44.602Z,6.52
2023-01-13T20:21:15.485Z,6.48
2023-01-13T20:23:46.196Z,6.48
2023-01-13T20:26:16.113Z,6.47
2023-01-13T20:28:45.288Z,6.44
2023-01-13T20:31:16.778Z,6.39
2023-01-13T20:33:51.594Z,6.38
2023-01-13T20:36:31.335Z,6.40
2023-01-13T20:39:01.685Z,6.42
2023-01-13T20:41:49.206Z,6.34
2023-01-13T20:44:18.608Z,6.28
2023-01-13T20:46:47.900Z,6.26
2023-01-13T20:49:19.647Z,6.26
2023-01-13T20:51:50.680Z,6.27
2023-01-13T20:54:20.321Z,6.22
2023-01-13T20:56:49.995Z,6.21
2023-01-13T20:59:20.038Z,6.20
2023-01-13T21:01:49.614Z,6.21
2023-01-13T21:04:18.709Z,6.15
2023-01-13T21:06:49.926Z,6.13
2023-01-13T21:09:19.406Z,6.07
2023-01-13T21:12:05.990Z,6.07
2023-01-13T21:14:53.079Z,6.07
2023-01-13T21:17:54.163Z,6.10
2023-01-13T21:20:23.647Z,6.08
2023-01-13T21:22:54.511Z,6.11
2023-01-13T21:25:25.866Z,6.09
2023-01-13T21:28:04.133Z,6.05
2023-01-13T21:30:34.295Z,5.99
2023-01-13T21:33:05.416Z,5.98
2023-01-13T21:35:34.918Z,6.00
2023-01-13T21:38:06.425Z,6.01
2023-01-13T21:40:37.137Z,5.97
2023-01-13T21:43:23.934Z,5.95
2023-01-13T21:46:10.282Z,5.94
2023-01-13T21:48:39.766Z,5.94
2023-01-13T21:51:08.875Z,5.92
2023-01-13T21:53:40.651Z,5.91
2023-01-13T21:56:10.993Z,5.86
2023-01-13T21:58:40.578Z,5.90
2023-01-13T22:01:11.967Z,5.88
2023-01-13T22:03:59.593Z,5.83
2023-01-13T22:06:28.904Z,5.89
2023-01-13T22:09:01.247Z,5.91
2023-01-13T22:11:31.777Z,5.95
2023-01-13T22:14:07.588Z,5.92
2023-01-13T22:16:39.415Z,5.92
2023-01-13T22:19:10.500Z,5.96
2023-01-13T22:21:40.084Z,6.02
2023-01-13T22:24:11.771Z,6.03
2023-01-13T22:26:40.916Z,6.06
2023-01-13T22:29:10.228Z,6.09
2023-01-13T22:31:40.217Z,6.13
2023-01-13T22:34:12.952Z,6.15
2023-01-13T22:36:41.995Z,6.19
2023-01-13T22:39:12.827Z,6.17
2023-01-13T22:41:42.100Z,6.22
2023-01-13T22:44:11.452Z,6.19
2023-01-13T22:46:40.610Z,6.21
2023-01-13T22:49:09.898Z,6.24
2023-01-13T22:51:39.283Z,6.21
2023-01-13T22:54:08.923Z,6.20
2023-01-13T22:56:39.842Z,6.17
2023-01-13T22:59:12.041Z,6.20
2023-01-13T23:01:42.205Z,6.13
2023-01-13T23:04:13.949Z,6.13
2023-01-13T23:06:43.243Z,6.17
2023-01-13T23:09:12.606Z,6.15
2023-01-13T23:11:43.374Z,6.19
2023-01-13T23:14:13.953Z,6.17
2023-01-13T23:16:43.155Z,6.12
2023-01-13T23:19:13.454Z,6.06
2023-01-13T23:21:42.671Z,6.03
2023-01-13T23:24:12.167Z,6.03
2023-01-13T23:26:42.972Z,6.04
2023-01-13T23:29:14.935Z,6.00
2023-01-13T23:31:44.311Z,6.03
2023-01-13T23:34:13.629Z,6.01
2023-01-13T23:36:43.834Z,6.03
2023-01-13T23:39:16.412Z,6.04
2023-01-13T23:41:46.828Z,6.05
2023-01-13T23:44:16.453Z,6.06
2023-01-13T23:46:45.634Z,6.00
2023-01-13T23:49:14.899Z,6.02
2023-01-13T23:51:44.112Z,5.98
2023-01-13T23:54:13.438Z,5.99
2023-01-13T23:56:42.818Z,5.98
2023-01-13T23:59:13.780Z,5.99
